ACA268 CYWG-CYYZ
Flight info
| Callsign | ACA268 |
|---|---|
| Flight time | 2h 4m |
| Altitude | 35000 |
| Route | RORMA DCT AXOMA DCT SIDPO DCT DEGVA DCT AGLIN DCT OTNIK BOXUM7 |
| Aircraft | A321/M-SDE3FGHIRWY/LB1 |
Departure
| Time | 2026-05-06 16:41 |
|---|---|
| Airport | Winnipeg / James Armstrong Richardson International Airport (CYWG) |
Arrival
| Time | 2026-05-06 18:45 |
|---|---|
| Airport | Toronto Pearson International Airport (CYYZ) |
| Time | Latitude | Longitude | Altitude | Speed | Heading |
|---|---|---|---|---|---|
| 2026-05-06 16:05 | 49.90664 | -97.22295 | 785 ft | 0 kts | 187° |
| 2026-05-06 16:28 | 49.90685 | -97.22291 | 784 ft | 4 kts | 191° |
| 2026-05-06 16:28 | 49.90711 | -97.22283 | 784 ft | 3 kts | 186° |
| 2026-05-06 16:29 | 49.90734 | -97.22276 | 784 ft | 4 kts | 208° |
| 2026-05-06 16:29 | 49.90751 | -97.22251 | 784 ft | 4 kts | 262° |
| 2026-05-06 16:29 | 49.90747 | -97.22212 | 783 ft | 4 kts | 294° |
| 2026-05-06 16:29 | 49.90735 | -97.22175 | 784 ft | 4 kts | 297° |
| 2026-05-06 16:30 | 49.90733 | -97.22167 | 784 ft | 0 kts | 296° |
| 2026-05-06 16:34 | 49.90740 | -97.22190 | 782 ft | 9 kts | 296° |
| 2026-05-06 16:34 | 49.90765 | -97.22338 | 780 ft | 15 kts | 274° |
| 2026-05-06 16:35 | 49.90764 | -97.22499 | 783 ft | 15 kts | 264° |
| 2026-05-06 16:35 | 49.90748 | -97.22656 | 782 ft | 14 kts | 258° |
| 2026-05-06 16:35 | 49.90727 | -97.22806 | 782 ft | 14 kts | 253° |
| 2026-05-06 16:35 | 49.90664 | -97.22908 | 782 ft | 13 kts | 202° |
| 2026-05-06 16:36 | 49.90581 | -97.22910 | 783 ft | 12 kts | 165° |
| 2026-05-06 16:36 | 49.90507 | -97.22879 | 784 ft | 10 kts | 174° |
| 2026-05-06 16:36 | 49.90436 | -97.22899 | 787 ft | 11 kts | 196° |
| 2026-05-06 16:36 | 49.90364 | -97.22936 | 784 ft | 13 kts | 199° |
| 2026-05-06 16:37 | 49.90270 | -97.22985 | 785 ft | 14 kts | 198° |
| 2026-05-06 16:37 | 49.90191 | -97.23052 | 785 ft | 12 kts | 229° |
| 2026-05-06 16:37 | 49.90152 | -97.23156 | 786 ft | 10 kts | 229° |
| 2026-05-06 16:37 | 49.90095 | -97.23155 | 786 ft | 11 kts | 148° |
| 2026-05-06 16:38 | 49.90024 | -97.23063 | 784 ft | 15 kts | 139° |
| 2026-05-06 16:38 | 49.89948 | -97.22951 | 781 ft | 15 kts | 141° |
| 2026-05-06 16:38 | 49.89860 | -97.22827 | 780 ft | 17 kts | 129° |
| 2026-05-06 16:38 | 49.89783 | -97.22683 | 781 ft | 12 kts | 130° |
| 2026-05-06 16:39 | 49.89735 | -97.22593 | 782 ft | 10 kts | 129° |
| 2026-05-06 16:39 | 49.89686 | -97.22546 | 782 ft | 8 kts | 188° |
| 2026-05-06 16:39 | 49.89636 | -97.22607 | 780 ft | 10 kts | 227° |
| 2026-05-06 16:39 | 49.89582 | -97.22703 | 779 ft | 18 kts | 229° |
| 2026-05-06 16:40 | 49.89571 | -97.22855 | 778 ft | 15 kts | 310° |
| 2026-05-06 16:40 | 49.89592 | -97.22886 | 778 ft | 5 kts | 322° |
| 2026-05-06 16:40 | 49.89825 | -97.23211 | 778 ft | 81 kts | 319° |
| 2026-05-06 16:40 | 49.90395 | -97.23988 | 783 ft | 135 kts | 319° |
| 2026-05-06 16:41 | 49.91174 | -97.25055 | 1150 ft | 149 kts | 319° |
| 2026-05-06 16:41 | 49.91922 | -97.26106 | 2029 ft | 142 kts | 320° |
| 2026-05-06 16:41 | 49.92664 | -97.27131 | 2642 ft | 146 kts | 320° |
| 2026-05-06 16:41 | 49.93477 | -97.28240 | 2945 ft | 166 kts | 319° |
| 2026-05-06 16:42 | 49.94398 | -97.29493 | 3146 ft | 187 kts | 319° |
| 2026-05-06 16:42 | 49.95440 | -97.30910 | 3350 ft | 213 kts | 319° |
| 2026-05-06 16:42 | 49.96616 | -97.32516 | 3786 ft | 235 kts | 319° |
| 2026-05-06 16:42 | 49.97864 | -97.34235 | 3983 ft | 241 kts | 319° |
| 2026-05-06 16:43 | 49.99116 | -97.35962 | 4004 ft | 241 kts | 319° |
| 2026-05-06 16:43 | 50.00369 | -97.37686 | 4007 ft | 240 kts | 319° |
| 2026-05-06 16:43 | 50.01755 | -97.39097 | 4003 ft | 240 kts | 343° |
| 2026-05-06 16:43 | 50.03409 | -97.38990 | 4009 ft | 246 kts | 20° |
| 2026-05-06 16:44 | 50.04681 | -97.37176 | 4484 ft | 261 kts | 60° |
| 2026-05-06 16:44 | 50.05006 | -97.34357 | 5397 ft | 275 kts | 95° |
| 2026-05-06 16:44 | 50.04249 | -97.31602 | 6296 ft | 285 kts | 130° |
| 2026-05-06 16:44 | 50.02642 | -97.29796 | 7120 ft | 289 kts | 155° |
| 2026-05-06 16:45 | 50.00896 | -97.28218 | 7925 ft | 294 kts | 136° |
| 2026-05-06 16:45 | 49.99790 | -97.25582 | 8701 ft | 294 kts | 106° |
| 2026-05-06 16:45 | 49.99369 | -97.22486 | 9548 ft | 293 kts | 93° |
| 2026-05-06 16:45 | 49.99210 | -97.19322 | 10255 ft | 301 kts | 90° |
| 2026-05-06 16:46 | 49.99077 | -97.15947 | 10493 ft | 325 kts | 91° |
| 2026-05-06 16:46 | 49.98871 | -97.12325 | 10691 ft | 348 kts | 94° |
| 2026-05-06 16:46 | 49.98549 | -97.08497 | 11088 ft | 363 kts | 96° |
| 2026-05-06 16:46 | 49.98130 | -97.04650 | 11756 ft | 369 kts | 98° |
| 2026-05-06 16:47 | 49.97633 | -97.00669 | 12503 ft | 373 kts | 99° |
| 2026-05-06 16:47 | 49.97109 | -96.96701 | 13252 ft | 377 kts | 100° |
| 2026-05-06 16:47 | 49.96580 | -96.92752 | 13967 ft | 380 kts | 100° |
| 2026-05-06 16:47 | 49.96041 | -96.88705 | 14611 ft | 384 kts | 99° |
| 2026-05-06 16:48 | 49.95506 | -96.84624 | 15256 ft | 388 kts | 99° |
| 2026-05-06 16:48 | 49.94973 | -96.80506 | 15903 ft | 391 kts | 99° |
| 2026-05-06 16:48 | 49.94437 | -96.76341 | 16523 ft | 395 kts | 99° |
| 2026-05-06 16:48 | 49.93976 | -96.72127 | 17109 ft | 397 kts | 93° |
| 2026-05-06 16:49 | 49.93890 | -96.67835 | 17679 ft | 399 kts | 88° |
| 2026-05-06 16:49 | 49.93868 | -96.63511 | 18248 ft | 403 kts | 88° |
| 2026-05-06 16:49 | 49.93839 | -96.59151 | 18745 ft | 406 kts | 88° |
| 2026-05-06 16:49 | 49.93804 | -96.54753 | 19237 ft | 409 kts | 88° |
| 2026-05-06 16:50 | 49.93762 | -96.50326 | 19733 ft | 411 kts | 89° |
| 2026-05-06 16:50 | 49.93715 | -96.45873 | 20235 ft | 414 kts | 88° |
| 2026-05-06 16:50 | 49.93666 | -96.41391 | 20715 ft | 417 kts | 88° |
| 2026-05-06 16:50 | 49.93633 | -96.38405 | 21032 ft | 419 kts | 88° |
| 2026-05-06 16:51 | 49.93571 | -96.32335 | 21692 ft | 422 kts | 88° |
| 2026-05-06 16:51 | 49.93533 | -96.27766 | 22151 ft | 425 kts | 88° |
| 2026-05-06 16:51 | 49.93495 | -96.23162 | 22614 ft | 428 kts | 88° |
| 2026-05-06 16:51 | 49.93454 | -96.18531 | 23069 ft | 431 kts | 88° |
| 2026-05-06 16:52 | 49.93408 | -96.13865 | 23522 ft | 434 kts | 88° |
| 2026-05-06 16:52 | 49.93356 | -96.09159 | 23914 ft | 437 kts | 88° |
| 2026-05-06 16:52 | 49.93302 | -96.04430 | 24282 ft | 439 kts | 88° |
| 2026-05-06 16:52 | 49.93248 | -95.99679 | 24646 ft | 442 kts | 88° |
| 2026-05-06 16:53 | 49.93194 | -95.94901 | 25010 ft | 444 kts | 88° |
| 2026-05-06 16:53 | 49.93139 | -95.90099 | 25388 ft | 446 kts | 88° |
| 2026-05-06 16:53 | 49.93079 | -95.85271 | 25741 ft | 449 kts | 88° |
| 2026-05-06 16:53 | 49.93014 | -95.80418 | 26085 ft | 451 kts | 88° |
| 2026-05-06 16:54 | 49.92949 | -95.75602 | 26429 ft | 453 kts | 88° |
| 2026-05-06 16:54 | 49.92882 | -95.70632 | 26766 ft | 456 kts | 89° |
| 2026-05-06 16:54 | 49.92811 | -95.65704 | 27097 ft | 458 kts | 89° |
| 2026-05-06 16:54 | 49.92738 | -95.60815 | 27416 ft | 460 kts | 89° |
| 2026-05-06 16:55 | 49.92664 | -95.55770 | 27741 ft | 462 kts | 89° |
| 2026-05-06 16:55 | 49.92587 | -95.50840 | 28061 ft | 465 kts | 89° |
| 2026-05-06 16:55 | 49.92507 | -95.45817 | 28378 ft | 467 kts | 89° |
| 2026-05-06 16:55 | 49.92424 | -95.40764 | 28737 ft | 469 kts | 89° |
| 2026-05-06 16:56 | 49.92337 | -95.35713 | 29131 ft | 468 kts | 89° |
| 2026-05-06 16:56 | 49.92245 | -95.30670 | 29577 ft | 467 kts | 89° |
| 2026-05-06 16:56 | 49.92152 | -95.25634 | 29998 ft | 466 kts | 89° |
| 2026-05-06 16:56 | 49.92056 | -95.20618 | 30366 ft | 465 kts | 89° |
| 2026-05-06 16:57 | 49.91962 | -95.15598 | 30686 ft | 465 kts | 89° |
| 2026-05-06 16:57 | 49.91869 | -95.10579 | 30994 ft | 466 kts | 89° |
| 2026-05-06 16:57 | 49.91772 | -95.05562 | 31289 ft | 466 kts | 89° |
| 2026-05-06 16:57 | 49.91670 | -95.00529 | 31597 ft | 466 kts | 89° |
| 2026-05-06 16:58 | 49.91501 | -94.95503 | 31923 ft | 467 kts | 94° |
| 2026-05-06 16:58 | 49.90917 | -94.90529 | 32226 ft | 470 kts | 103° |
| 2026-05-06 16:58 | 49.89857 | -94.85731 | 32516 ft | 472 kts | 111° |
| 2026-05-06 16:58 | 49.88575 | -94.81041 | 32804 ft | 472 kts | 111° |
| 2026-05-06 16:59 | 49.87295 | -94.76353 | 33098 ft | 472 kts | 111° |
| 2026-05-06 16:59 | 49.86017 | -94.71657 | 33372 ft | 473 kts | 111° |
| 2026-05-06 16:59 | 49.84739 | -94.66954 | 33649 ft | 473 kts | 111° |
| 2026-05-06 16:59 | 49.83462 | -94.62243 | 33928 ft | 474 kts | 111° |
| 2026-05-06 17:00 | 49.82178 | -94.57539 | 34176 ft | 474 kts | 112° |
| 2026-05-06 17:00 | 49.80888 | -94.52842 | 34399 ft | 475 kts | 112° |
| 2026-05-06 17:00 | 49.79590 | -94.48144 | 34632 ft | 475 kts | 112° |
| 2026-05-06 17:00 | 49.78290 | -94.43450 | 34868 ft | 475 kts | 112° |
| 2026-05-06 17:01 | 49.76992 | -94.38759 | 35019 ft | 476 kts | 112° |
| 2026-05-06 17:01 | 49.74416 | -94.29452 | 35065 ft | 473 kts | 112° |
| 2026-05-06 17:02 | 49.71828 | -94.20119 | 35062 ft | 472 kts | 112° |
| 2026-05-06 17:02 | 49.69231 | -94.10805 | 35057 ft | 472 kts | 112° |
| 2026-05-06 17:03 | 49.67056 | -94.03003 | 35049 ft | 472 kts | 112° |
| 2026-05-06 17:03 | 49.64456 | -93.93753 | 35046 ft | 473 kts | 112° |
| 2026-05-06 17:04 | 49.61810 | -93.84379 | 35046 ft | 474 kts | 112° |
| 2026-05-06 17:04 | 49.59177 | -93.75071 | 35041 ft | 474 kts | 113° |
| 2026-05-06 17:05 | 49.56537 | -93.65772 | 35039 ft | 474 kts | 113° |
| 2026-05-06 17:05 | 49.53882 | -93.56484 | 35056 ft | 474 kts | 113° |
| 2026-05-06 17:06 | 49.51234 | -93.47270 | 35052 ft | 474 kts | 113° |
| 2026-05-06 17:06 | 49.48568 | -93.38002 | 35045 ft | 473 kts | 113° |
| 2026-05-06 17:07 | 49.45902 | -93.28747 | 35029 ft | 473 kts | 114° |
| 2026-05-06 17:07 | 49.43226 | -93.19501 | 35028 ft | 474 kts | 114° |
| 2026-05-06 17:08 | 49.40540 | -93.10262 | 35040 ft | 474 kts | 114° |
| 2026-05-06 17:08 | 49.37841 | -93.01025 | 35037 ft | 474 kts | 114° |
| 2026-05-06 17:09 | 49.35136 | -92.91799 | 35034 ft | 474 kts | 114° |
| 2026-05-06 17:09 | 49.32428 | -92.82584 | 35032 ft | 474 kts | 114° |
| 2026-05-06 17:10 | 49.29708 | -92.73377 | 35029 ft | 474 kts | 114° |
| 2026-05-06 17:10 | 49.26977 | -92.64183 | 35021 ft | 474 kts | 114° |
| 2026-05-06 17:11 | 49.24240 | -92.54993 | 35016 ft | 474 kts | 115° |
| 2026-05-06 17:11 | 49.21496 | -92.45810 | 35007 ft | 475 kts | 115° |
| 2026-05-06 17:12 | 49.18746 | -92.36624 | 35008 ft | 475 kts | 115° |
| 2026-05-06 17:12 | 49.15988 | -92.27452 | 35000 ft | 475 kts | 115° |
| 2026-05-06 17:13 | 49.13220 | -92.18290 | 35005 ft | 475 kts | 115° |
| 2026-05-06 17:13 | 49.10446 | -92.09141 | 35002 ft | 475 kts | 115° |
| 2026-05-06 17:14 | 49.07659 | -92.00006 | 35001 ft | 475 kts | 115° |
| 2026-05-06 17:14 | 49.04871 | -91.90880 | 34978 ft | 475 kts | 115° |
| 2026-05-06 17:15 | 49.02072 | -91.81752 | 34977 ft | 476 kts | 115° |
| 2026-05-06 17:15 | 48.99264 | -91.72625 | 34978 ft | 476 kts | 116° |
| 2026-05-06 17:16 | 48.96443 | -91.63498 | 34980 ft | 476 kts | 116° |
| 2026-05-06 17:16 | 48.93618 | -91.54385 | 34972 ft | 476 kts | 116° |
| 2026-05-06 17:17 | 48.90784 | -91.45286 | 34970 ft | 476 kts | 116° |
| 2026-05-06 17:17 | 48.87946 | -91.36191 | 34965 ft | 476 kts | 116° |
| 2026-05-06 17:18 | 48.85118 | -91.27157 | 34969 ft | 476 kts | 116° |
| 2026-05-06 17:18 | 48.82267 | -91.18087 | 34962 ft | 476 kts | 116° |
| 2026-05-06 17:19 | 48.79403 | -91.09030 | 34962 ft | 476 kts | 116° |
| 2026-05-06 17:19 | 48.76535 | -90.99987 | 34955 ft | 476 kts | 116° |
| 2026-05-06 17:20 | 48.73661 | -90.90944 | 34953 ft | 476 kts | 116° |
| 2026-05-06 17:20 | 48.70782 | -90.81910 | 34942 ft | 476 kts | 117° |
| 2026-05-06 17:21 | 48.67890 | -90.72888 | 34942 ft | 476 kts | 117° |
| 2026-05-06 17:21 | 48.64989 | -90.63875 | 34920 ft | 476 kts | 117° |
| 2026-05-06 17:22 | 48.62081 | -90.54862 | 34914 ft | 477 kts | 117° |
| 2026-05-06 17:22 | 48.59165 | -90.45848 | 34913 ft | 478 kts | 117° |
| 2026-05-06 17:23 | 48.56233 | -90.36834 | 34921 ft | 478 kts | 117° |
| 2026-05-06 17:23 | 48.53295 | -90.27831 | 34922 ft | 478 kts | 117° |
| 2026-05-06 17:24 | 48.50351 | -90.18829 | 34921 ft | 479 kts | 117° |
| 2026-05-06 17:24 | 48.47389 | -90.09819 | 34921 ft | 479 kts | 118° |
| 2026-05-06 17:25 | 48.44427 | -90.00841 | 34920 ft | 479 kts | 118° |
| 2026-05-06 17:25 | 48.41443 | -89.91812 | 34894 ft | 483 kts | 118° |
| 2026-05-06 17:26 | 48.38433 | -89.82752 | 34886 ft | 486 kts | 118° |
| 2026-05-06 17:26 | 48.35399 | -89.73637 | 34889 ft | 488 kts | 118° |
| 2026-05-06 17:27 | 48.32368 | -89.64577 | 34889 ft | 489 kts | 118° |
| 2026-05-06 17:27 | 48.29310 | -89.55446 | 34894 ft | 490 kts | 118° |
| 2026-05-06 17:28 | 48.26238 | -89.46312 | 34890 ft | 490 kts | 119° |
| 2026-05-06 17:28 | 48.23274 | -89.37120 | 34901 ft | 491 kts | 115° |
| 2026-05-06 17:29 | 48.20651 | -89.27655 | 34861 ft | 492 kts | 114° |
| 2026-05-06 17:29 | 48.18077 | -89.18139 | 34877 ft | 493 kts | 114° |
| 2026-05-06 17:30 | 48.15404 | -89.08664 | 34876 ft | 494 kts | 115° |
| 2026-05-06 17:30 | 48.12657 | -88.99218 | 34878 ft | 495 kts | 116° |
| 2026-05-06 17:31 | 48.09899 | -88.89788 | 34879 ft | 496 kts | 115° |
| 2026-05-06 17:31 | 48.07150 | -88.80335 | 34887 ft | 496 kts | 115° |
| 2026-05-06 17:32 | 48.04400 | -88.70869 | 34894 ft | 496 kts | 115° |
| 2026-05-06 17:32 | 48.01638 | -88.61426 | 34897 ft | 496 kts | 115° |
| 2026-05-06 17:33 | 47.98865 | -88.51996 | 34865 ft | 496 kts | 116° |
| 2026-05-06 17:33 | 47.96081 | -88.42565 | 34869 ft | 497 kts | 116° |
| 2026-05-06 17:34 | 47.93285 | -88.33129 | 34874 ft | 497 kts | 116° |
| 2026-05-06 17:34 | 47.90483 | -88.23698 | 34878 ft | 498 kts | 116° |
| 2026-05-06 17:35 | 47.87677 | -88.14262 | 34876 ft | 498 kts | 116° |
| 2026-05-06 17:35 | 47.84866 | -88.04840 | 34883 ft | 498 kts | 116° |
| 2026-05-06 17:36 | 47.80608 | -87.90738 | 34885 ft | 498 kts | 116° |
| 2026-05-06 17:36 | 47.77775 | -87.81398 | 34860 ft | 498 kts | 117° |
| 2026-05-06 17:37 | 47.74929 | -87.72006 | 34859 ft | 499 kts | 117° |
| 2026-05-06 17:37 | 47.72072 | -87.62604 | 34864 ft | 499 kts | 117° |
| 2026-05-06 17:38 | 47.69195 | -87.53210 | 34862 ft | 500 kts | 117° |
| 2026-05-06 17:38 | 47.66311 | -87.43829 | 34871 ft | 500 kts | 117° |
| 2026-05-06 17:39 | 47.63426 | -87.34455 | 34873 ft | 500 kts | 117° |
| 2026-05-06 17:39 | 47.60534 | -87.25080 | 34875 ft | 500 kts | 117° |
| 2026-05-06 17:40 | 47.57623 | -87.15725 | 34872 ft | 500 kts | 117° |
| 2026-05-06 17:40 | 47.54708 | -87.06372 | 34850 ft | 500 kts | 118° |
| 2026-05-06 17:41 | 47.51784 | -86.97022 | 34851 ft | 501 kts | 118° |
| 2026-05-06 17:41 | 47.48844 | -86.87681 | 34859 ft | 501 kts | 118° |
| 2026-05-06 17:42 | 47.45903 | -86.78330 | 34864 ft | 502 kts | 118° |
| 2026-05-06 17:42 | 47.42958 | -86.68977 | 34871 ft | 502 kts | 118° |
| 2026-05-06 17:43 | 47.40011 | -86.59664 | 34868 ft | 502 kts | 118° |
| 2026-05-06 17:43 | 47.37035 | -86.50333 | 34867 ft | 502 kts | 118° |
| 2026-05-06 17:44 | 47.34056 | -86.41015 | 34865 ft | 502 kts | 118° |
| 2026-05-06 17:44 | 47.31577 | -86.33280 | 34840 ft | 503 kts | 119° |
| 2026-05-06 17:45 | 47.28584 | -86.23960 | 34845 ft | 503 kts | 119° |
| 2026-05-06 17:45 | 47.25574 | -86.14654 | 34852 ft | 504 kts | 120° |
| 2026-05-06 17:46 | 47.22554 | -86.05353 | 34850 ft | 504 kts | 120° |
| 2026-05-06 17:46 | 47.19524 | -85.96047 | 34850 ft | 504 kts | 120° |
| 2026-05-06 17:47 | 47.16485 | -85.86756 | 34812 ft | 504 kts | 120° |
| 2026-05-06 17:47 | 47.13445 | -85.77475 | 34806 ft | 504 kts | 120° |
| 2026-05-06 17:48 | 47.10395 | -85.68196 | 34813 ft | 505 kts | 120° |
| 2026-05-06 17:48 | 47.07334 | -85.58925 | 34806 ft | 505 kts | 120° |
| 2026-05-06 17:49 | 47.04265 | -85.49664 | 34812 ft | 505 kts | 121° |
| 2026-05-06 17:49 | 47.01183 | -85.40404 | 34819 ft | 505 kts | 121° |
| 2026-05-06 17:50 | 46.98099 | -85.31149 | 34820 ft | 506 kts | 121° |
| 2026-05-06 17:50 | 46.95005 | -85.21900 | 34820 ft | 506 kts | 121° |
| 2026-05-06 17:51 | 46.91902 | -85.12672 | 34823 ft | 506 kts | 121° |
| 2026-05-06 17:51 | 46.88811 | -85.03510 | 34814 ft | 506 kts | 121° |
| 2026-05-06 17:52 | 46.85687 | -84.94292 | 34793 ft | 506 kts | 121° |
| 2026-05-06 17:52 | 46.82560 | -84.85080 | 34792 ft | 507 kts | 121° |
| 2026-05-06 17:53 | 46.79422 | -84.75858 | 34797 ft | 508 kts | 121° |
| 2026-05-06 17:53 | 46.76263 | -84.66640 | 34831 ft | 508 kts | 122° |
| 2026-05-06 17:54 | 46.73091 | -84.57417 | 34861 ft | 509 kts | 122° |
| 2026-05-06 17:54 | 46.69918 | -84.48203 | 34891 ft | 509 kts | 122° |
| 2026-05-06 17:55 | 46.66743 | -84.39009 | 34905 ft | 509 kts | 122° |
| 2026-05-06 17:55 | 46.63556 | -84.29813 | 34909 ft | 509 kts | 122° |
| 2026-05-06 17:56 | 46.60354 | -84.20619 | 34910 ft | 509 kts | 122° |
| 2026-05-06 17:56 | 46.57144 | -84.11433 | 34891 ft | 510 kts | 122° |
| 2026-05-06 17:57 | 46.53928 | -84.02246 | 34859 ft | 510 kts | 122° |
| 2026-05-06 17:57 | 46.50703 | -83.93077 | 34811 ft | 510 kts | 123° |
| 2026-05-06 17:58 | 46.47464 | -83.83911 | 34776 ft | 510 kts | 123° |
| 2026-05-06 17:58 | 46.44229 | -83.74768 | 34785 ft | 510 kts | 123° |
| 2026-05-06 17:59 | 46.40912 | -83.65690 | 34789 ft | 505 kts | 129° |
| 2026-05-06 17:59 | 46.36626 | -83.57938 | 34754 ft | 493 kts | 141° |
| 2026-05-06 18:00 | 46.31996 | -83.50594 | 34757 ft | 499 kts | 136° |
| 2026-05-06 18:00 | 46.28081 | -83.42177 | 34763 ft | 506 kts | 130° |
| 2026-05-06 18:01 | 46.24258 | -83.33640 | 34768 ft | 506 kts | 130° |
| 2026-05-06 18:01 | 46.20430 | -83.25108 | 34778 ft | 506 kts | 130° |
| 2026-05-06 18:02 | 46.16589 | -83.16607 | 34769 ft | 506 kts | 131° |
| 2026-05-06 18:02 | 46.12725 | -83.08123 | 34748 ft | 506 kts | 131° |
| 2026-05-06 18:03 | 46.08805 | -82.99696 | 34755 ft | 505 kts | 133° |
| 2026-05-06 18:03 | 46.04704 | -82.91510 | 34810 ft | 503 kts | 135° |
| 2026-05-06 18:04 | 46.00538 | -82.83415 | 34854 ft | 503 kts | 135° |
| 2026-05-06 18:04 | 45.96401 | -82.75293 | 34916 ft | 503 kts | 135° |
| 2026-05-06 18:05 | 45.92300 | -82.67142 | 34930 ft | 503 kts | 135° |
| 2026-05-06 18:05 | 45.88188 | -82.58978 | 34942 ft | 505 kts | 135° |
| 2026-05-06 18:06 | 45.84061 | -82.50817 | 34948 ft | 505 kts | 135° |
| 2026-05-06 18:06 | 45.81993 | -82.46750 | 34780 ft | 505 kts | 136° |
| 2026-05-06 18:06 | 45.79924 | -82.42682 | 34785 ft | 505 kts | 136° |
| 2026-05-06 18:07 | 45.75781 | -82.34559 | 34799 ft | 505 kts | 136° |
| 2026-05-06 18:07 | 45.71625 | -82.26454 | 34810 ft | 505 kts | 136° |
| 2026-05-06 18:08 | 45.67472 | -82.18361 | 34759 ft | 505 kts | 137° |
| 2026-05-06 18:08 | 45.63318 | -82.10296 | 34812 ft | 499 kts | 134° |
| 2026-05-06 18:09 | 45.58805 | -82.03025 | 34836 ft | 482 kts | 146° |
| 2026-05-06 18:09 | 45.53916 | -81.96479 | 34844 ft | 481 kts | 146° |
| 2026-05-06 18:10 | 45.49039 | -81.89965 | 34849 ft | 480 kts | 146° |
| 2026-05-06 18:10 | 45.44171 | -81.83476 | 34832 ft | 479 kts | 146° |
| 2026-05-06 18:11 | 45.39332 | -81.77037 | 34846 ft | 479 kts | 146° |
| 2026-05-06 18:11 | 45.34466 | -81.70566 | 34844 ft | 479 kts | 146° |
| 2026-05-06 18:12 | 45.29600 | -81.64093 | 34855 ft | 479 kts | 146° |
| 2026-05-06 18:12 | 45.24721 | -81.57655 | 34815 ft | 479 kts | 146° |
| 2026-05-06 18:13 | 45.19834 | -81.51237 | 34842 ft | 479 kts | 146° |
| 2026-05-06 18:13 | 45.14955 | -81.44822 | 34838 ft | 478 kts | 146° |
| 2026-05-06 18:14 | 45.10074 | -81.38419 | 34856 ft | 478 kts | 146° |
| 2026-05-06 18:14 | 45.05205 | -81.32050 | 34840 ft | 478 kts | 146° |
| 2026-05-06 18:15 | 45.00327 | -81.25678 | 34847 ft | 477 kts | 146° |
| 2026-05-06 18:15 | 44.95455 | -81.19336 | 34876 ft | 477 kts | 146° |
| 2026-05-06 18:16 | 44.90570 | -81.12995 | 34838 ft | 477 kts | 146° |
| 2026-05-06 18:16 | 44.85692 | -81.06661 | 34845 ft | 477 kts | 146° |
| 2026-05-06 18:17 | 44.80794 | -81.00316 | 34826 ft | 478 kts | 146° |
| 2026-05-06 18:17 | 44.75879 | -80.93977 | 34831 ft | 479 kts | 146° |
| 2026-05-06 18:18 | 44.70983 | -80.87683 | 34808 ft | 480 kts | 146° |
| 2026-05-06 18:18 | 44.66057 | -80.81357 | 34826 ft | 480 kts | 146° |
| 2026-05-06 18:19 | 44.63586 | -80.78192 | 34225 ft | 483 kts | 146° |
| 2026-05-06 18:19 | 44.61082 | -80.74995 | 33165 ft | 490 kts | 146° |
| 2026-05-06 18:19 | 44.58553 | -80.71761 | 32192 ft | 493 kts | 146° |
| 2026-05-06 18:19 | 44.56020 | -80.68520 | 31154 ft | 491 kts | 147° |
| 2026-05-06 18:20 | 44.53506 | -80.65297 | 29320 ft | 491 kts | 147° |
| 2026-05-06 18:20 | 44.50969 | -80.62064 | 27247 ft | 495 kts | 147° |
| 2026-05-06 18:20 | 44.48435 | -80.58834 | 25719 ft | 487 kts | 147° |
| 2026-05-06 18:20 | 44.45958 | -80.55668 | 24328 ft | 477 kts | 147° |
| 2026-05-06 18:21 | 44.43528 | -80.52561 | 22849 ft | 468 kts | 146° |
| 2026-05-06 18:21 | 44.41150 | -80.49537 | 21430 ft | 456 kts | 146° |
| 2026-05-06 18:21 | 44.38830 | -80.46601 | 20055 ft | 445 kts | 146° |
| 2026-05-06 18:21 | 44.36558 | -80.43734 | 18989 ft | 430 kts | 146° |
| 2026-05-06 18:22 | 44.34434 | -80.41034 | 18753 ft | 395 kts | 146° |
| 2026-05-06 18:22 | 44.32456 | -80.38510 | 18383 ft | 381 kts | 147° |
| 2026-05-06 18:22 | 44.30472 | -80.36027 | 17920 ft | 383 kts | 147° |
| 2026-05-06 18:22 | 44.28484 | -80.33555 | 17471 ft | 382 kts | 147° |
| 2026-05-06 18:23 | 44.26511 | -80.31098 | 17148 ft | 381 kts | 147° |
| 2026-05-06 18:23 | 44.24543 | -80.28635 | 16716 ft | 381 kts | 146° |
| 2026-05-06 18:23 | 44.22578 | -80.26167 | 16242 ft | 378 kts | 146° |
| 2026-05-06 18:23 | 44.20636 | -80.23727 | 15800 ft | 374 kts | 146° |
| 2026-05-06 18:24 | 44.18707 | -80.21306 | 15317 ft | 372 kts | 146° |
| 2026-05-06 18:24 | 44.16822 | -80.18939 | 14881 ft | 369 kts | 146° |
| 2026-05-06 18:24 | 44.14899 | -80.16517 | 14387 ft | 367 kts | 146° |
| 2026-05-06 18:24 | 44.13013 | -80.14145 | 13930 ft | 365 kts | 146° |
| 2026-05-06 18:25 | 44.11149 | -80.11797 | 13701 ft | 355 kts | 146° |
| 2026-05-06 18:25 | 44.09353 | -80.09529 | 13566 ft | 343 kts | 146° |
| 2026-05-06 18:25 | 44.07639 | -80.07370 | 13429 ft | 331 kts | 146° |
| 2026-05-06 18:25 | 44.05961 | -80.05266 | 13243 ft | 321 kts | 147° |
| 2026-05-06 18:26 | 44.04311 | -80.03210 | 12952 ft | 316 kts | 147° |
| 2026-05-06 18:26 | 44.02682 | -80.01189 | 12685 ft | 313 kts | 147° |
| 2026-05-06 18:26 | 44.01044 | -79.99220 | 12420 ft | 309 kts | 149° |
| 2026-05-06 18:26 | 43.99378 | -79.97403 | 12163 ft | 305 kts | 152° |
| 2026-05-06 18:27 | 43.97667 | -79.95638 | 11884 ft | 303 kts | 152° |
| 2026-05-06 18:27 | 43.95973 | -79.93921 | 11635 ft | 302 kts | 152° |
| 2026-05-06 18:27 | 43.94281 | -79.92206 | 11290 ft | 300 kts | 152° |
| 2026-05-06 18:27 | 43.92606 | -79.90499 | 10923 ft | 298 kts | 151° |
| 2026-05-06 18:28 | 43.90951 | -79.88803 | 10568 ft | 297 kts | 151° |
| 2026-05-06 18:28 | 43.89299 | -79.87100 | 10209 ft | 295 kts | 150° |
| 2026-05-06 18:28 | 43.87660 | -79.85402 | 9854 ft | 294 kts | 150° |
| 2026-05-06 18:28 | 43.86024 | -79.83704 | 9470 ft | 293 kts | 149° |
| 2026-05-06 18:29 | 43.84947 | -79.82585 | 9236 ft | 292 kts | 149° |
| 2026-05-06 18:29 | 43.83340 | -79.80913 | 9002 ft | 285 kts | 149° |
| 2026-05-06 18:29 | 43.81786 | -79.79290 | 8853 ft | 275 kts | 149° |
| 2026-05-06 18:29 | 43.80285 | -79.77724 | 8719 ft | 266 kts | 149° |
| 2026-05-06 18:30 | 43.78857 | -79.76235 | 8549 ft | 247 kts | 150° |
| 2026-05-06 18:30 | 43.77509 | -79.74836 | 8118 ft | 238 kts | 150° |
| 2026-05-06 18:30 | 43.76199 | -79.73463 | 7588 ft | 236 kts | 143° |
| 2026-05-06 18:30 | 43.75208 | -79.71663 | 7411 ft | 228 kts | 116° |
| 2026-05-06 18:31 | 43.74782 | -79.69669 | 7475 ft | 212 kts | 102° |
| 2026-05-06 18:31 | 43.74612 | -79.67674 | 7104 ft | 208 kts | 100° |
| 2026-05-06 18:31 | 43.74446 | -79.65683 | 6545 ft | 211 kts | 99° |
| 2026-05-06 18:31 | 43.74280 | -79.63669 | 6020 ft | 210 kts | 98° |
| 2026-05-06 18:32 | 43.74120 | -79.61687 | 5503 ft | 207 kts | 98° |
| 2026-05-06 18:32 | 43.73960 | -79.59713 | 5000 ft | 205 kts | 97° |
| 2026-05-06 18:32 | 43.73811 | -79.57829 | 4524 ft | 202 kts | 96° |
| 2026-05-06 18:32 | 43.73612 | -79.55918 | 4030 ft | 200 kts | 104° |
| 2026-05-06 18:33 | 43.73119 | -79.54147 | 3956 ft | 198 kts | 118° |
| 2026-05-06 18:33 | 43.72350 | -79.52580 | 3954 ft | 199 kts | 132° |
| 2026-05-06 18:33 | 43.71366 | -79.51246 | 3962 ft | 198 kts | 139° |
| 2026-05-06 18:33 | 43.70360 | -79.49937 | 3960 ft | 198 kts | 138° |
| 2026-05-06 18:34 | 43.69355 | -79.48629 | 3959 ft | 198 kts | 139° |
| 2026-05-06 18:34 | 43.68365 | -79.47341 | 3961 ft | 198 kts | 139° |
| 2026-05-06 18:34 | 43.67360 | -79.46035 | 3962 ft | 198 kts | 138° |
| 2026-05-06 18:34 | 43.66356 | -79.44733 | 3963 ft | 198 kts | 138° |
| 2026-05-06 18:35 | 43.65351 | -79.43431 | 3962 ft | 198 kts | 139° |
| 2026-05-06 18:35 | 43.64348 | -79.42131 | 3963 ft | 197 kts | 139° |
| 2026-05-06 18:35 | 43.63353 | -79.40842 | 3963 ft | 196 kts | 139° |
| 2026-05-06 18:35 | 43.62364 | -79.39557 | 3963 ft | 195 kts | 139° |
| 2026-05-06 18:36 | 43.61379 | -79.38279 | 3962 ft | 195 kts | 139° |
| 2026-05-06 18:36 | 43.60391 | -79.36994 | 3962 ft | 195 kts | 139° |
| 2026-05-06 18:36 | 43.59402 | -79.35711 | 3868 ft | 195 kts | 140° |
| 2026-05-06 18:36 | 43.58394 | -79.34471 | 3739 ft | 194 kts | 141° |
| 2026-05-06 18:37 | 43.57374 | -79.33253 | 3610 ft | 193 kts | 141° |
| 2026-05-06 18:37 | 43.56355 | -79.32046 | 3477 ft | 193 kts | 141° |
| 2026-05-06 18:37 | 43.55330 | -79.30863 | 3354 ft | 192 kts | 146° |
| 2026-05-06 18:37 | 43.54168 | -79.29985 | 3228 ft | 190 kts | 159° |
| 2026-05-06 18:38 | 43.52899 | -79.29594 | 3098 ft | 187 kts | 180° |
| 2026-05-06 18:38 | 43.51638 | -79.29872 | 2964 ft | 181 kts | 202° |
| 2026-05-06 18:38 | 43.50570 | -79.30745 | 2933 ft | 186 kts | 223° |
| 2026-05-06 18:38 | 43.49801 | -79.32111 | 2849 ft | 176 kts | 246° |
| 2026-05-06 18:39 | 43.49605 | -79.33704 | 2742 ft | 171 kts | 274° |
| 2026-05-06 18:39 | 43.50055 | -79.35289 | 2698 ft | 187 kts | 303° |
| 2026-05-06 18:39 | 43.50894 | -79.36681 | 2663 ft | 189 kts | 307° |
| 2026-05-06 18:40 | 43.52593 | -79.39465 | 2563 ft | 189 kts | 308° |
| 2026-05-06 18:40 | 43.53442 | -79.40853 | 2530 ft | 190 kts | 308° |
| 2026-05-06 18:40 | 43.54292 | -79.42243 | 2489 ft | 190 kts | 309° |
| 2026-05-06 18:40 | 43.55142 | -79.43635 | 2439 ft | 190 kts | 311° |
| 2026-05-06 18:41 | 43.55948 | -79.44959 | 2389 ft | 171 kts | 311° |
| 2026-05-06 18:41 | 43.56706 | -79.46208 | 2351 ft | 168 kts | 311° |
| 2026-05-06 18:41 | 43.57454 | -79.47441 | 2315 ft | 167 kts | 311° |
| 2026-05-06 18:41 | 43.58199 | -79.48666 | 2276 ft | 167 kts | 311° |
| 2026-05-06 18:42 | 43.58941 | -79.49888 | 2238 ft | 167 kts | 311° |
| 2026-05-06 18:42 | 43.59678 | -79.51103 | 2196 ft | 159 kts | 311° |
| 2026-05-06 18:42 | 43.60352 | -79.52214 | 2161 ft | 146 kts | 311° |
| 2026-05-06 18:42 | 43.60994 | -79.53268 | 2101 ft | 141 kts | 312° |
| 2026-05-06 18:43 | 43.61647 | -79.54252 | 2007 ft | 137 kts | 315° |
| 2026-05-06 18:43 | 43.62321 | -79.55193 | 1860 ft | 138 kts | 316° |
| 2026-05-06 18:43 | 43.62998 | -79.56105 | 1690 ft | 135 kts | 318° |
| 2026-05-06 18:43 | 43.63679 | -79.57002 | 1514 ft | 136 kts | 318° |
| 2026-05-06 18:44 | 43.64364 | -79.57904 | 1370 ft | 135 kts | 318° |
| 2026-05-06 18:44 | 43.65042 | -79.58800 | 1130 ft | 136 kts | 319° |
| 2026-05-06 18:44 | 43.65737 | -79.59678 | 914 ft | 135 kts | 316° |
| 2026-05-06 18:44 | 43.66399 | -79.60576 | 767 ft | 134 kts | 318° |
| 2026-05-06 18:45 | 43.67078 | -79.61451 | 600 ft | 133 kts | 319° |
| 2026-05-06 18:45 | 43.67707 | -79.62255 | 569 ft | 99 kts | 315° |
| 2026-05-06 18:45 | 43.67952 | -79.62585 | 570 ft | 23 kts | 318° |
| 2026-05-06 18:45 | 43.68054 | -79.62683 | 575 ft | 15 kts | 335° |
| 2026-05-06 18:46 | 43.68124 | -79.62683 | 568 ft | 7 kts | 66° |
| 2026-05-06 18:46 | 43.68129 | -79.62627 | 568 ft | 5 kts | 81° |
| 2026-05-06 18:46 | 43.68143 | -79.62582 | 567 ft | 5 kts | 62° |
| 2026-05-06 18:46 | 43.68174 | -79.62519 | 564 ft | 11 kts | 52° |
| 2026-05-06 18:47 | 43.68209 | -79.62428 | 562 ft | 10 kts | 91° |
| 2026-05-06 18:47 | 43.68171 | -79.62361 | 562 ft | 8 kts | 137° |
| 2026-05-06 18:47 | 43.68142 | -79.62324 | 563 ft | 5 kts | 137° |
| 2026-05-06 18:47 | 43.68105 | -79.62276 | 571 ft | 8 kts | 137° |
| 2026-05-06 18:48 | 43.68068 | -79.62227 | 562 ft | 7 kts | 136° |
| 2026-05-06 18:48 | 43.68015 | -79.62157 | 567 ft | 14 kts | 136° |
| 2026-05-06 18:48 | 43.67965 | -79.62055 | 564 ft | 12 kts | 85° |
| 2026-05-06 18:48 | 43.67968 | -79.61950 | 570 ft | 11 kts | 123° |
| 2026-05-06 18:49 | 43.67893 | -79.61886 | 567 ft | 12 kts | 153° |
| 2026-05-06 18:49 | 43.67833 | -79.61824 | 566 ft | 10 kts | 134° |
| 2026-05-06 18:49 | 43.67784 | -79.61758 | 562 ft | 12 kts | 136° |
| 2026-05-06 18:49 | 43.67743 | -79.61664 | 565 ft | 10 kts | 76° |
| 2026-05-06 18:50 | 43.67763 | -79.61658 | 570 ft | 4 kts | 346° |
| 2026-05-06 18:50 | 43.67813 | -79.61670 | 564 ft | 6 kts | 358° |
| 2026-05-06 18:50 | 43.67838 | -79.61670 | 562 ft | 3 kts | 1° |
| 2026-05-06 18:50 | 43.67847 | -79.61670 | 566 ft | 0 kts | 1° |